Time;durP1;ratioP1;P1;durP2;ratioP2;P2;SDS_P1;SDS_P2;PMS_P1;PMS_P2;Temp;Humidity;BMP_temperature;BMP_pressure;BME280_temperature;BME280_humidity;BME280_pressure;Samples;Min_cycle;Max_cycle;Signal;HPM_P1;HPM_P2
2022/04/11 00:01:57;;;;;;;4.30;1.95;;;;;;;;;;5052765;28;20159;-80
2022/04/11 00:04:22;;;;;;;2.33;1.73;;;;;;;;;;5057093;28;20094;-80
2022/04/11 00:06:47;;;;;;;5.45;2.25;;;;;;;;;;5057091;28;20041;-80
2022/04/11 00:09:12;;;;;;;6.95;1.90;;;;;;;;;;5056118;28;20032;-80
2022/04/11 00:11:38;;;;;;;3.25;1.85;;;;;;;;;;5056252;28;20041;-80
2022/04/11 00:14:04;;;;;;;2.63;1.60;;;;;;;;;;5056934;28;20086;-79
2022/04/11 00:16:30;;;;;;;4.38;1.98;;;;;;;;;;5060139;28;20021;-80
2022/04/11 00:18:55;;;;;;;2.97;1.85;;;;;;;;;;5058060;28;20044;-80
2022/04/11 00:21:20;;;;;;;3.60;1.75;;;;;;;;;;5058827;28;20033;-79
2022/04/11 00:23:45;;;;;;;4.10;2.10;;;;;;;;;;5059112;28;20037;-79
2022/04/11 00:26:11;;;;;;;3.60;1.95;;;;;;;;;;5057725;28;20033;-79
2022/04/11 00:28:37;;;;;;;4.45;2.03;;;;;;;;;;5059046;28;20040;-79
2022/04/11 00:31:02;;;;;;;3.53;1.90;;;;;;;;;;5059237;28;20100;-80
2022/04/11 00:33:28;;;;;;;3.85;1.98;;;;;;;;;;5058018;28;20146;-80
2022/04/11 00:35:53;;;;;;;2.72;1.92;;;;;;;;;;5058928;28;20150;-80
2022/04/11 00:38:19;;;;;;;2.50;1.63;;;;;;;;;;5057261;28;20029;-81
2022/04/11 00:40:44;;;;;;;2.70;1.70;;;;;;;;;;5055422;28;20129;-81
2022/04/11 00:43:09;;;;;;;3.55;1.83;;;;;;;;;;5056848;28;20100;-80
2022/04/11 00:45:35;;;;;;;2.78;1.67;;;;;;;;;;5056555;28;20044;-80
2022/04/11 00:48:00;;;;;;;2.38;1.70;;;;;;;;;;5038976;28;20037;-80
2022/04/11 00:50:26;;;;;;;3.63;1.83;;;;;;;;;;5055667;28;20052;-81
2022/04/11 00:52:53;;;;;;;3.85;1.88;;;;;;;;;;5038396;28;20500;-80
2022/04/11 00:55:18;;;;;;;3.22;2.20;;;;;;;;;;5056417;28;20033;-81
2022/04/11 00:57:43;;;;;;;3.00;1.90;;;;;;;;;;5056644;28;20068;-80
2022/04/11 01:00:09;;;;;;;3.03;1.98;;;;;;;;;;5055062;28;20040;-80
2022/04/11 01:02:35;;;;;;;2.85;1.90;;;;;;;;;;5054600;28;20024;-81
2022/04/11 01:05:00;;;;;;;3.38;1.77;;;;;;;;;;5055896;28;20036;-81
2022/04/11 01:07:25;;;;;;;3.25;1.75;;;;;;;;;;5056524;28;20474;-81
2022/04/11 01:09:51;;;;;;;3.63;1.70;;;;;;;;;;5055962;28;20079;-81
2022/04/11 01:12:16;;;;;;;3.20;2.00;;;;;;;;;;5054937;28;20056;-81
2022/04/11 01:14:42;;;;;;;4.03;2.10;;;;;;;;;;5055409;28;20041;-80
2022/04/11 01:17:08;;;;;;;2.67;1.85;;;;;;;;;;5037958;28;20406;-80
2022/04/11 01:19:33;;;;;;;3.50;1.88;;;;;;;;;;5054770;28;20033;-80
2022/04/11 01:21:59;;;;;;;2.72;1.98;;;;;;;;;;5054999;28;20091;-80
2022/04/11 01:24:24;;;;;;;4.65;2.17;;;;;;;;;;5054472;28;20029;-80
2022/04/11 01:26:54;;;;;;;4.03;1.80;;;;;;;;;;5054132;28;20032;-80
2022/04/11 01:29:21;;;;;;;3.38;2.10;;;;;;;;;;5054229;28;20462;-80
2022/04/11 01:31:46;;;;;;;2.60;1.65;;;;;;;;;;5054625;28;20029;-80
2022/04/11 01:34:13;;;;;;;2.60;1.90;;;;;;;;;;5054298;28;20033;-80
2022/04/11 01:36:38;;;;;;;3.38;1.80;;;;;;;;;;5037926;28;20411;-81
2022/04/11 01:39:08;;;;;;;4.47;1.83;;;;;;;;;;5054435;28;20408;-81
2022/04/11 01:41:33;;;;;;;2.50;1.83;;;;;;;;;;5054789;28;20091;-80
2022/04/11 01:43:59;;;;;;;2.88;1.75;;;;;;;;;;5054092;28;20033;-81
2022/04/11 01:46:24;;;;;;;3.70;2.03;;;;;;;;;;5055395;28;20113;-80
2022/04/11 01:48:52;;;;;;;3.53;2.10;;;;;;;;;;5038192;28;20378;-80
2022/04/11 01:51:18;;;;;;;3.38;1.70;;;;;;;;;;5054136;28;20071;-80
2022/04/11 01:53:43;;;;;;;3.50;1.88;;;;;;;;;;5054232;28;20040;-80
2022/04/11 01:56:10;;;;;;;2.83;1.88;;;;;;;;;;5054071;28;20059;-80
2022/04/11 01:58:35;;;;;;;3.03;1.70;;;;;;;;;;5054424;28;20485;-80
2022/04/11 02:01:01;;;;;;;3.05;1.80;;;;;;;;;;5053690;28;20063;-80
2022/04/11 02:03:28;;;;;;;2.72;1.90;;;;;;;;;;5053798;28;20033;-80
2022/04/11 02:05:53;;;;;;;3.42;1.80;;;;;;;;;;5036986;28;20029;-81
2022/04/11 02:08:18;;;;;;;4.70;2.15;;;;;;;;;;5036998;28;20060;-80
2022/04/11 02:10:44;;;;;;;3.03;1.90;;;;;;;;;;5055531;28;20040;-80
2022/04/11 02:13:10;;;;;;;4.78;2.05;;;;;;;;;;5054276;28;20040;-80
2022/04/11 02:15:37;;;;;;;2.40;1.70;;;;;;;;;;5053999;28;20492;-80
2022/04/11 02:18:03;;;;;;;3.42;2.13;;;;;;;;;;5053381;28;20079;-80
2022/04/11 02:20:28;;;;;;;4.22;2.10;;;;;;;;;;5053759;28;20082;-81
2022/04/11 02:22:53;;;;;;;4.75;2.03;;;;;;;;;;5053632;28;20025;-80
2022/04/11 02:25:19;;;;;;;4.68;1.80;;;;;;;;;;5054076;28;20477;-80
2022/04/11 02:27:44;;;;;;;4.20;1.98;;;;;;;;;;5055429;28;20091;-80
2022/04/11 02:30:09;;;;;;;3.83;1.90;;;;;;;;;;5037263;28;20044;-80
2022/04/11 02:32:35;;;;;;;3.10;1.90;;;;;;;;;;5053767;28;20061;-81
2022/04/11 02:35:01;;;;;;;3.90;1.90;;;;;;;;;;5054068;28;20112;-78
2022/04/11 02:37:26;;;;;;;3.85;1.98;;;;;;;;;;5054332;28;20112;-80
2022/04/11 02:39:51;;;;;;;3.10;1.95;;;;;;;;;;5054594;28;20108;-80
2022/04/11 02:42:17;;;;;;;3.38;2.10;;;;;;;;;;5053471;28;20481;-80
2022/04/11 02:44:42;;;;;;;3.20;1.80;;;;;;;;;;5053012;28;20037;-81
2022/04/11 02:47:07;;;;;;;4.22;2.00;;;;;;;;;;5036131;28;20416;-80
2022/04/11 02:49:32;;;;;;;2.85;1.92;;;;;;;;;;5052603;28;20032;-81
2022/04/11 02:52:10;;;;;;;3.60;1.92;;;;;;;;;;5052732;28;20037;-81
2022/04/11 02:54:35;;;;;;;2.83;2.13;;;;;;;;;;5052385;28;20036;-80
2022/04/11 02:57:01;;;;;;;3.53;1.92;;;;;;;;;;5052782;28;20040;-80
2022/04/11 02:59:26;;;;;;;5.38;1.92;;;;;;;;;;5052873;28;20056;-80
2022/04/11 03:01:56;;;;;;;5.22;2.08;;;;;;;;;;5054018;28;20493;-80
2022/04/11 03:04:22;;;;;;;4.63;2.20;;;;;;;;;;5035645;28;20036;-81
2022/04/11 03:06:54;;;;;;;3.00;1.70;;;;;;;;;;5052209;28;20124;-80
2022/04/11 03:09:20;;;;;;;2.35;1.90;;;;;;;;;;5035929;28;20063;-80
2022/04/11 03:11:45;;;;;;;3.88;2.00;;;;;;;;;;5035738;28;20071;-80
2022/04/11 03:14:11;;;;;;;3.70;2.00;;;;;;;;;;5052049;28;20120;-80
2022/04/11 03:16:37;;;;;;;3.42;2.10;;;;;;;;;;5035750;28;20025;-80
2022/04/11 03:19:02;;;;;;;3.42;2.10;;;;;;;;;;5052006;28;20036;-79
2022/04/11 03:21:28;;;;;;;3.72;1.95;;;;;;;;;;5052239;28;20547;-80
2022/04/11 03:24:02;;;;;;;2.83;1.92;;;;;;;;;;5051961;28;20059;-80
2022/04/11 03:26:27;;;;;;;3.63;2.20;;;;;;;;;;5052170;28;20033;-80
2022/04/11 03:28:53;;;;;;;2.83;2.08;;;;;;;;;;5051648;28;20033;-80
2022/04/11 03:31:18;;;;;;;4.70;2.40;;;;;;;;;;5051794;28;20410;-81
2022/04/11 03:33:44;;;;;;;4.13;1.98;;;;;;;;;;5035499;28;20563;-81
2022/04/11 03:36:09;;;;;;;4.10;2.08;;;;;;;;;;5051851;28;20409;-80
2022/04/11 03:38:35;;;;;;;3.65;2.20;;;;;;;;;;5051828;28;20082;-80
2022/04/11 03:41:01;;;;;;;3.47;2.17;;;;;;;;;;5051881;28;20029;-79
2022/04/11 03:43:27;;;;;;;2.80;2.10;;;;;;;;;;5052132;28;20450;-81
2022/04/11 03:45:53;;;;;;;2.90;2.00;;;;;;;;;;5051650;28;20037;-80
2022/04/11 03:48:19;;;;;;;5.70;2.45;;;;;;;;;;5051790;28;20404;-80
2022/04/11 03:50:44;;;;;;;3.72;2.00;;;;;;;;;;5053136;28;20029;-80
2022/04/11 03:53:11;;;;;;;3.83;2.33;;;;;;;;;;5051977;28;20381;-80
2022/04/11 03:55:38;;;;;;;3.58;2.10;;;;;;;;;;5051561;28;20124;-80
2022/04/11 03:58:06;;;;;;;3.13;2.13;;;;;;;;;;5051794;28;20493;-80
2022/04/11 04:00:34;;;;;;;3.75;2.15;;;;;;;;;;5051448;28;20128;-81
2022/04/11 04:03:23;;;;;;;3.67;2.10;;;;;;;;;;5052588;28;20428;-80
2022/04/11 04:05:55;;;;;;;2.85;1.80;;;;;;;;;;5051323;28;20162;-80
2022/04/11 04:08:24;;;;;;;3.25;2.28;;;;;;;;;;5051676;28;20041;-80
2022/04/11 04:11:11;;;;;;;3.28;2.10;;;;;;;;;;5051684;28;20064;-80
2022/04/11 04:13:41;;;;;;;3.13;2.30;;;;;;;;;;5051273;28;20043;-80
2022/04/11 04:16:06;;;;;;;3.00;2.15;;;;;;;;;;5051429;28;20033;-80
2022/04/11 04:18:34;;;;;;;3.67;2.00;;;;;;;;;;5035085;28;20060;-80
2022/04/11 04:21:01;;;;;;;3.15;2.30;;;;;;;;;;5051453;28;20120;-80
2022/04/11 04:23:26;;;;;;;3.75;2.22;;;;;;;;;;5051778;28;20068;-80
2022/04/11 04:25:52;;;;;;;5.32;2.50;;;;;;;;;;5051231;28;20124;-80
2022/04/11 04:28:17;;;;;;;4.93;2.47;;;;;;;;;;5052655;28;20033;-80
2022/04/11 04:30:44;;;;;;;4.50;1.92;;;;;;;;;;5051297;28;20029;-81
2022/04/11 04:33:09;;;;;;;3.17;1.80;;;;;;;;;;5051214;28;20060;-80
2022/04/11 04:35:34;;;;;;;4.80;2.13;;;;;;;;;;5050987;28;20029;-80
2022/04/11 04:38:04;;;;;;;9.55;4.45;;;;;;;;;;5051536;28;20029;-80
2022/04/11 04:40:36;;;;;;;4.32;2.10;;;;;;;;;;5051469;28;20060;-80
2022/04/11 04:43:04;;;;;;;2.78;1.85;;;;;;;;;;5051905;28;20443;-79
2022/04/11 04:45:29;;;;;;;3.53;1.73;;;;;;;;;;5051047;28;20033;-81
2022/04/11 04:48:11;;;;;;;2.60;1.70;;;;;;;;;;5051022;28;20033;-80
2022/04/11 04:50:38;;;;;;;3.65;1.98;;;;;;;;;;5038223;28;20493;-80
2022/04/11 04:53:07;;;;;;;2.92;1.80;;;;;;;;;;5054632;28;20029;-81
2022/04/11 04:55:32;;;;;;;4.97;1.88;;;;;;;;;;5037591;28;20047;-80
2022/04/11 04:57:58;;;;;;;4.60;2.22;;;;;;;;;;5054636;28;20035;-80
2022/04/11 05:00:23;;;;;;;3.47;2.15;;;;;;;;;;5037911;28;20493;-80
2022/04/11 05:02:49;;;;;;;4.35;2.58;;;;;;;;;;5054546;28;20667;-81
2022/04/11 05:05:20;;;;;;;4.22;2.92;;;;;;;;;;5053959;28;20516;-80
2022/04/11 05:07:47;;;;;;;4.45;2.30;;;;;;;;;;5037907;28;20405;-80
2022/04/11 05:10:12;;;;;;;3.75;2.70;;;;;;;;;;5054320;28;20029;-80
2022/04/11 05:12:39;;;;;;;3.22;2.10;;;;;;;;;;5037858;28;20047;-79
2022/04/11 05:15:05;;;;;;;4.30;2.15;;;;;;;;;;5054174;28;20033;-80
2022/04/11 05:17:31;;;;;;;9.30;2.30;;;;;;;;;;5053832;28;20036;-80
2022/04/11 05:19:56;;;;;;;4.55;2.50;;;;;;;;;;5053882;28;20057;-80
2022/04/11 05:22:21;;;;;;;6.07;2.53;;;;;;;;;;5053943;28;20112;-80
2022/04/11 05:24:47;;;;;;;4.97;2.25;;;;;;;;;;5053717;28;20025;-80
2022/04/11 05:27:13;;;;;;;6.68;2.80;;;;;;;;;;5053830;28;20033;-80
2022/04/11 05:29:39;;;;;;;4.32;2.80;;;;;;;;;;5037496;28;20029;-80
2022/04/11 05:32:04;;;;;;;4.70;2.90;;;;;;;;;;5037372;28;20044;-80
2022/04/11 05:34:30;;;;;;;5.43;2.80;;;;;;;;;;5054617;28;20068;-80
2022/04/11 05:36:57;;;;;;;4.18;2.30;;;;;;;;;;5053585;28;20025;-80
2022/04/11 05:39:22;;;;;;;4.70;2.17;;;;;;;;;;5053838;28;20040;-80
2022/04/11 05:41:48;;;;;;;4.88;2.60;;;;;;;;;;5054001;28;20048;-80
2022/04/11 05:44:13;;;;;;;4.18;2.38;;;;;;;;;;5036507;28;20087;-80
2022/04/11 05:46:42;;;;;;;5.07;2.65;;;;;;;;;;5053239;28;20574;-79
2022/04/11 05:49:12;;;;;;;4.00;1.90;;;;;;;;;;5053724;28;20025;-80
2022/04/11 05:51:38;;;;;;;4.28;2.30;;;;;;;;;;5037441;28;20397;-79
2022/04/11 05:54:03;;;;;;;3.60;2.35;;;;;;;;;;5054377;28;20666;-80
2022/04/11 05:56:29;;;;;;;3.45;2.03;;;;;;;;;;5036875;28;20029;-80
2022/04/11 05:58:55;;;;;;;3.65;2.20;;;;;;;;;;5053605;28;20033;-80
2022/04/11 06:01:20;;;;;;;6.93;2.10;;;;;;;;;;5052569;28;20119;-79
2022/04/11 06:03:45;;;;;;;4.82;2.20;;;;;;;;;;5054587;28;20045;-79
2022/04/11 06:06:11;;;;;;;5.20;2.15;;;;;;;;;;5053661;28;20033;-80
2022/04/11 06:08:36;;;;;;;2.47;1.75;;;;;;;;;;5053434;28;20071;-80
2022/04/11 06:11:02;;;;;;;2.83;1.65;;;;;;;;;;5037095;28;20063;-80
2022/04/11 06:13:27;;;;;;;2.95;1.67;;;;;;;;;;5053696;28;20064;-80
2022/04/11 06:15:55;;;;;;;4.75;1.60;;;;;;;;;;5036751;28;20442;-80
2022/04/11 06:18:21;;;;;;;3.00;1.70;;;;;;;;;;5053454;28;20037;-80
2022/04/11 06:20:47;;;;;;;2.25;1.67;;;;;;;;;;5052494;28;20508;-80
2022/04/11 06:23:13;;;;;;;6.40;3.22;;;;;;;;;;5052436;28;20032;-80
2022/04/11 06:25:39;;;;;;;5.07;2.08;;;;;;;;;;5052797;28;20025;-80
2022/04/11 06:28:04;;;;;;;3.78;2.13;;;;;;;;;;5053695;28;20074;-79
2022/04/11 06:30:30;;;;;;;4.90;2.00;;;;;;;;;;5053470;28;20032;-80
2022/04/11 06:32:55;;;;;;;2.75;1.90;;;;;;;;;;5052133;28;20033;-80
2022/04/11 06:35:21;;;;;;;3.05;1.58;;;;;;;;;;5051865;28;20117;-80
2022/04/11 06:37:46;;;;;;;5.40;1.70;;;;;;;;;;5052562;28;20029;-80
2022/04/11 06:40:11;;;;;;;2.58;1.70;;;;;;;;;;5053693;28;20025;-80
2022/04/11 06:42:37;;;;;;;4.13;1.70;;;;;;;;;;5051850;28;20032;-80
2022/04/11 06:45:04;;;;;;;5.60;1.70;;;;;;;;;;5035382;28;20040;-80
2022/04/11 06:47:31;;;;;;;2.85;1.70;;;;;;;;;;5051714;28;20033;-80
2022/04/11 06:49:58;;;;;;;2.85;1.70;;;;;;;;;;5051985;28;20079;-80
2022/04/11 06:52:23;;;;;;;3.13;1.67;;;;;;;;;;5054889;28;20025;-80
2022/04/11 06:54:48;;;;;;;2.83;1.63;;;;;;;;;;5052144;28;20041;-80
2022/04/11 06:57:14;;;;;;;1.88;1.30;;;;;;;;;;5053727;28;20017;-80
2022/04/11 06:59:39;;;;;;;1.73;1.33;;;;;;;;;;5054527;28;20033;-79
2022/04/11 07:02:04;;;;;;;3.13;1.55;;;;;;;;;;5055573;28;20413;-79
2022/04/11 07:04:29;;;;;;;3.00;1.40;;;;;;;;;;5052914;28;20048;-79
2022/04/11 07:06:55;;;;;;;3.95;1.58;;;;;;;;;;5053324;28;20033;-80
2022/04/11 07:09:20;;;;;;;3.85;1.63;;;;;;;;;;5053413;28;20028;-80
2022/04/11 07:11:45;;;;;;;4.78;1.40;;;;;;;;;;5052007;28;20043;-80
2022/04/11 07:14:11;;;;;;;3.00;1.55;;;;;;;;;;5052420;28;20133;-80
2022/04/11 07:16:36;;;;;;;2.58;1.45;;;;;;;;;;5053331;28;20040;-80
2022/04/11 07:19:01;;;;;;;2.78;1.30;;;;;;;;;;5035004;28;20048;-80
2022/04/11 07:21:27;;;;;;;2.38;1.50;;;;;;;;;;5051876;28;20029;-80
2022/04/11 07:23:52;;;;;;;2.85;1.42;;;;;;;;;;5051380;28;20059;-80
2022/04/11 07:26:17;;;;;;;3.97;1.40;;;;;;;;;;5053609;28;20037;-80
2022/04/11 07:28:43;;;;;;;3.20;1.60;;;;;;;;;;5053109;28;20033;-80
2022/04/11 07:31:08;;;;;;;2.72;1.27;;;;;;;;;;5052664;28;20431;-79
2022/04/11 07:33:33;;;;;;;2.30;1.25;;;;;;;;;;5053268;28;20017;-80
2022/04/11 07:35:59;;;;;;;3.97;1.30;;;;;;;;;;5052553;28;20463;-80
2022/04/11 07:38:24;;;;;;;2.25;1.38;;;;;;;;;;5051247;28;20037;-80
2022/04/11 07:40:49;;;;;;;2.65;1.38;;;;;;;;;;5052802;28;20041;-80
2022/04/11 07:43:14;;;;;;;3.35;1.33;;;;;;;;;;5053123;28;20068;-80
2022/04/11 07:45:40;;;;;;;3.08;1.42;;;;;;;;;;5052756;28;20065;-80
2022/04/11 07:48:05;;;;;;;3.17;1.52;;;;;;;;;;5053249;28;20547;-80
2022/04/11 07:50:30;;;;;;;2.28;1.40;;;;;;;;;;5053540;28;20035;-80
2022/04/11 07:52:55;;;;;;;2.25;1.27;;;;;;;;;;5053239;28;20021;-80
2022/04/11 07:55:20;;;;;;;2.83;1.35;;;;;;;;;;5052868;28;20485;-79
2022/04/11 07:57:46;;;;;;;2.42;1.20;;;;;;;;;;5051792;28;20037;-80
2022/04/11 08:00:11;;;;;;;3.05;1.40;;;;;;;;;;5053653;28;20032;-80
2022/04/11 08:02:39;;;;;;;3.65;1.50;;;;;;;;;;5051648;28;20033;-80
2022/04/11 08:05:07;;;;;;;3.78;1.50;;;;;;;;;;5051667;28;20044;-80
2022/04/11 08:07:32;;;;;;;1.85;1.42;;;;;;;;;;5051571;28;20044;-80
2022/04/11 08:09:58;;;;;;;3.47;1.40;;;;;;;;;;5053910;28;20397;-80
2022/04/11 08:12:23;;;;;;;2.25;1.20;;;;;;;;;;5055362;28;20056;-80
2022/04/11 08:14:48;;;;;;;2.28;1.20;;;;;;;;;;5052296;28;20055;-81
2022/04/11 08:17:13;;;;;;;2.10;1.40;;;;;;;;;;5053000;28;20405;-81
2022/04/11 08:19:39;;;;;;;2.13;1.40;;;;;;;;;;5051392;28;20028;-80
2022/04/11 08:22:05;;;;;;;2.35;1.20;;;;;;;;;;5051814;28;20127;-80
2022/04/11 08:24:30;;;;;;;1.92;1.30;;;;;;;;;;5052935;28;20128;-81
2022/04/11 08:26:58;;;;;;;2.03;1.15;;;;;;;;;;5056872;28;20086;-81
2022/04/11 08:29:24;;;;;;;1.85;1.20;;;;;;;;;;5058814;28;20041;-81
2022/04/11 08:31:49;;;;;;;2.17;1.20;;;;;;;;;;5057560;28;20044;-80
2022/04/11 08:34:14;;;;;;;1.40;1.10;;;;;;;;;;5057801;28;20123;-81
2022/04/11 08:36:40;;;;;;;2.08;1.10;;;;;;;;;;5055440;28;20048;-80
2022/04/11 08:39:05;;;;;;;3.10;1.30;;;;;;;;;;5039775;28;20033;-80
2022/04/11 08:41:30;;;;;;;1.92;1.30;;;;;;;;;;5057480;28;20040;-80
2022/04/11 08:43:56;;;;;;;3.33;1.30;;;;;;;;;;5056695;28;20151;-80
2022/04/11 08:46:21;;;;;;;1.63;1.20;;;;;;;;;;5058288;28;20036;-80
2022/04/11 08:48:46;;;;;;;2.30;1.73;;;;;;;;;;5058891;28;20112;-80
2022/04/11 08:51:11;;;;;;;2.97;1.38;;;;;;;;;;5057239;28;20044;-81
2022/04/11 08:53:37;;;;;;;2.13;1.52;;;;;;;;;;5057381;28;20036;-80
2022/04/11 08:56:02;;;;;;;2.75;1.27;;;;;;;;;;5058168;28;20054;-79
2022/04/11 08:58:27;;;;;;;2.35;1.33;;;;;;;;;;5041121;28;20493;-79
2022/04/11 09:00:52;;;;;;;2.17;1.38;;;;;;;;;;5056919;28;20107;-80
2022/04/11 09:03:18;;;;;;;2.30;1.60;;;;;;;;;;5058545;28;20033;-80
2022/04/11 09:05:43;;;;;;;4.25;1.63;;;;;;;;;;5056188;28;20128;-81
2022/04/11 09:08:08;;;;;;;4.07;1.50;;;;;;;;;;5056016;28;20025;-80
2022/04/11 09:10:36;;;;;;;2.65;1.60;;;;;;;;;;5055602;28;20489;-80
2022/04/11 09:13:01;;;;;;;2.53;1.52;;;;;;;;;;5056034;28;20037;-80
2022/04/11 09:15:26;;;;;;;3.78;1.65;;;;;;;;;;5055995;28;20086;-80
2022/04/11 09:17:52;;;;;;;3.05;1.30;;;;;;;;;;5056030;28;20041;-81
2022/04/11 09:20:17;;;;;;;3.28;1.60;;;;;;;;;;5056658;28;20032;-81
2022/04/11 09:22:42;;;;;;;3.92;1.70;;;;;;;;;;5057019;28;20489;-80
2022/04/11 09:25:07;;;;;;;3.45;1.73;;;;;;;;;;5055518;28;20024;-80
2022/04/11 09:27:33;;;;;;;2.92;1.70;;;;;;;;;;5056157;28;20095;-81
2022/04/11 09:29:58;;;;;;;4.07;1.90;;;;;;;;;;5056027;28;20025;-80
2022/04/11 09:32:23;;;;;;;5.78;1.75;;;;;;;;;;5055998;28;20489;-81
2022/04/11 09:34:48;;;;;;;4.20;2.08;;;;;;;;;;5056087;28;20036;-81
2022/04/11 09:37:14;;;;;;;3.25;1.80;;;;;;;;;;5055802;28;20072;-81
2022/04/11 09:39:44;;;;;;;5.07;2.33;;;;;;;;;;5055481;28;20082;-81
2022/04/11 09:42:09;;;;;;;5.78;1.90;;;;;;;;;;5054100;28;20033;-81
2022/04/11 09:44:34;;;;;;;2.83;1.60;;;;;;;;;;5056428;28;20458;-79
2022/04/11 09:46:59;;;;;;;2.92;1.50;;;;;;;;;;5057220;28;20029;-79
2022/04/11 09:49:27;;;;;;;3.17;1.90;;;;;;;;;;5056196;28;20098;-79
2022/04/11 09:51:53;;;;;;;2.38;1.80;;;;;;;;;;5056972;28;20033;-79
2022/04/11 09:54:18;;;;;;;5.22;1.77;;;;;;;;;;5056754;28;20040;-80
2022/04/11 09:56:43;;;;;;;2.60;1.70;;;;;;;;;;5057063;28;20036;-81
2022/04/11 09:59:10;;;;;;;3.60;2.00;;;;;;;;;;5055834;28;20033;-79
2022/04/11 10:01:35;;;;;;;3.13;1.80;;;;;;;;;;5057037;28;20112;-80
2022/04/11 10:04:00;;;;;;;3.42;2.10;;;;;;;;;;5056914;28;20072;-79
2022/04/11 10:06:26;;;;;;;3.30;2.00;;;;;;;;;;5057517;28;20052;-81
2022/04/11 10:08:51;;;;;;;2.83;1.77;;;;;;;;;;5057011;28;20021;-80
2022/04/11 10:11:16;;;;;;;2.65;1.85;;;;;;;;;;5055908;28;20072;-80
2022/04/11 10:13:41;;;;;;;4.25;1.80;;;;;;;;;;5055240;28;20025;-80
2022/04/11 10:16:07;;;;;;;4.47;1.90;;;;;;;;;;5056983;28;20040;-80
2022/04/11 10:18:33;;;;;;;2.40;1.60;;;;;;;;;;5055879;28;20047;-81
2022/04/11 10:20:58;;;;;;;2.63;1.70;;;;;;;;;;5056684;28;20029;-81
2022/04/11 10:23:24;;;;;;;3.55;2.00;;;;;;;;;;5056886;28;20107;-81
2022/04/11 10:25:49;;;;;;;2.80;1.80;;;;;;;;;;5056567;28;20025;-80
2022/04/11 10:28:15;;;;;;;3.53;2.00;;;;;;;;;;5055948;28;20059;-80
2022/04/11 10:30:41;;;;;;;2.85;2.05;;;;;;;;;;5055823;28;20477;-80
2022/04/11 10:33:06;;;;;;;3.22;1.70;;;;;;;;;;5055325;28;20086;-80
2022/04/11 10:35:32;;;;;;;3.20;1.70;;;;;;;;;;5055139;28;20489;-80
2022/04/11 10:37:57;;;;;;;4.18;1.85;;;;;;;;;;5056640;28;20037;-81
2022/04/11 10:40:22;;;;;;;3.92;2.55;;;;;;;;;;5055309;28;20016;-80
2022/04/11 10:42:47;;;;;;;3.85;2.13;;;;;;;;;;5055332;28;20029;-81
2022/04/11 10:45:13;;;;;;;3.15;1.50;;;;;;;;;;5056049;28;20499;-81
2022/04/11 10:47:38;;;;;;;3.22;1.55;;;;;;;;;;5054936;28;20037;-80
2022/04/11 10:50:06;;;;;;;2.47;1.55;;;;;;;;;;5056544;28;20041;-81
2022/04/11 10:52:31;;;;;;;3.80;1.70;;;;;;;;;;5056104;28;20068;-80
2022/04/11 10:54:57;;;;;;;2.65;1.50;;;;;;;;;;5056813;28;20032;-81
2022/04/11 10:57:22;;;;;;;2.85;1.60;;;;;;;;;;5056175;28;20083;-81
2022/04/11 10:59:47;;;;;;;3.40;1.55;;;;;;;;;;5055022;28;20064;-81
2022/04/11 11:02:13;;;;;;;3.25;1.40;;;;;;;;;;5054910;28;20056;-81
2022/04/11 11:04:38;;;;;;;3.97;1.58;;;;;;;;;;5055774;28;20094;-81
2022/04/11 11:07:03;;;;;;;2.35;1.40;;;;;;;;;;5055791;28;20064;-81
2022/04/11 11:09:29;;;;;;;2.50;1.42;;;;;;;;;;5053292;28;20035;-81
2022/04/11 11:11:54;;;;;;;3.47;1.50;;;;;;;;;;5054617;28;20489;-81
2022/04/11 11:14:19;;;;;;;3.33;1.70;;;;;;;;;;5055590;28;20037;-80
2022/04/11 11:16:45;;;;;;;2.80;1.60;;;;;;;;;;5054412;28;20315;-81
2022/04/11 11:19:10;;;;;;;2.53;1.30;;;;;;;;;;5054732;28;20040;-81
2022/04/11 11:21:43;;;;;;;2.13;1.50;;;;;;;;;;5055243;28;20062;-80
2022/04/11 11:24:12;;;;;;;2.72;1.40;;;;;;;;;;5053652;28;20477;-81
2022/04/11 11:26:37;;;;;;;2.28;1.35;;;;;;;;;;5054316;28;20534;-81
2022/04/11 11:29:02;;;;;;;2.42;1.40;;;;;;;;;;5055291;28;20033;-81
2022/04/11 11:31:28;;;;;;;4.50;1.30;;;;;;;;;;5055382;28;20394;-81
2022/04/11 11:33:53;;;;;;;3.83;1.40;;;;;;;;;;5055753;28;20032;-81
2022/04/11 11:36:18;;;;;;;2.50;1.45;;;;;;;;;;5054845;28;20116;-81
2022/04/11 11:38:43;;;;;;;2.42;1.30;;;;;;;;;;5054918;28;20094;-81
2022/04/11 11:41:09;;;;;;;2.13;1.40;;;;;;;;;;5054215;28;20037;-81
2022/04/11 11:43:34;;;;;;;1.77;1.40;;;;;;;;;;5055497;28;20040;-80
2022/04/11 11:45:59;;;;;;;2.42;1.30;;;;;;;;;;5055745;28;20048;-80
2022/04/11 11:48:24;;;;;;;2.47;1.42;;;;;;;;;;5055062;28;20047;-81
2022/04/11 11:50:50;;;;;;;1.48;1.15;;;;;;;;;;5055005;28;20017;-81
2022/04/11 11:53:15;;;;;;;2.45;1.48;;;;;;;;;;5054253;28;20417;-81
2022/04/11 11:55:40;;;;;;;2.55;1.38;;;;;;;;;;5054077;28;20068;-81
2022/04/11 11:58:06;;;;;;;2.78;1.25;;;;;;;;;;5054109;28;20090;-81
2022/04/11 12:00:31;;;;;;;2.40;1.20;;;;;;;;;;5058722;28;20436;-81
2022/04/11 12:05:40;;;;;;;;;;;;;;;;;;5059827;28;20412;-81
2022/04/11 12:08:07;;;;;;;1.90;1.40;;;;;;;;;;5059364;28;19908;-81
2022/04/11 12:10:33;;;;;;;4.88;1.20;;;;;;;;;;5058773;28;20443;-81
2022/04/11 12:12:58;;;;;;;2.90;1.40;;;;;;;;;;5056616;28;20071;-81
2022/04/11 12:15:23;;;;;;;2.00;1.35;;;;;;;;;;5058146;28;20037;-81
2022/04/11 12:17:49;;;;;;;2.50;1.48;;;;;;;;;;5057835;28;20017;-82
2022/04/11 12:20:14;;;;;;;3.85;1.58;;;;;;;;;;5057815;28;20489;-81
2022/04/11 12:22:40;;;;;;;1.80;1.20;;;;;;;;;;5057639;28;20375;-83
2022/04/11 12:25:05;;;;;;;2.20;1.30;;;;;;;;;;5058284;28;20100;-81
2022/04/11 12:27:30;;;;;;;2.97;1.60;;;;;;;;;;5040066;28;20033;-82
2022/04/11 12:29:56;;;;;;;2.78;1.45;;;;;;;;;;5059006;28;20148;-80
2022/04/11 12:32:22;;;;;;;3.13;1.40;;;;;;;;;;5057401;28;20398;-80
2022/04/11 12:34:49;;;;;;;2.53;1.30;;;;;;;;;;5057645;28;20035;-80
2022/04/11 12:37:16;;;;;;;1.70;1.10;;;;;;;;;;5058569;28;20039;-80
2022/04/11 12:39:41;;;;;;;3.83;1.60;;;;;;;;;;5058829;28;20052;-82
2022/04/11 12:42:06;;;;;;;2.55;1.40;;;;;;;;;;5060636;28;20104;-80
2022/04/11 12:44:31;;;;;;;2.83;1.30;;;;;;;;;;5059567;28;20092;-81
2022/04/11 12:46:57;;;;;;;1.67;1.15;;;;;;;;;;5059007;28;20075;-80
2022/04/11 12:49:22;;;;;;;2.25;1.10;;;;;;;;;;5057642;28;20512;-80
2022/04/11 12:51:47;;;;;;;3.20;1.20;;;;;;;;;;5057186;28;20036;-80
2022/04/11 12:54:13;;;;;;;2.38;1.40;;;;;;;;;;5057877;28;20111;-81
2022/04/11 12:56:38;;;;;;;2.33;1.33;;;;;;;;;;5056828;28;20049;-80
2022/04/11 12:59:03;;;;;;;3.63;1.25;;;;;;;;;;5058326;28;20029;-80
2022/04/11 13:01:28;;;;;;;1.70;1.02;;;;;;;;;;5058139;28;20506;-80
2022/04/11 13:03:54;;;;;;;3.75;1.25;;;;;;;;;;5057589;28;20044;-80
2022/04/11 13:06:19;;;;;;;4.95;1.17;;;;;;;;;;5058122;28;20029;-80
2022/04/11 13:08:44;;;;;;;2.35;1.20;;;;;;;;;;5057037;28;20044;-80
2022/04/11 13:11:09;;;;;;;3.50;1.50;;;;;;;;;;5058138;28;20593;-81
2022/04/11 13:13:35;;;;;;;3.45;1.30;;;;;;;;;;5057659;28;20013;-80
2022/04/11 13:18:46;;;;;;;;;;;;;;;;;;5058348;28;20029;-80
2022/04/11 13:21:11;;;;;;;3.67;1.20;;;;;;;;;;5057788;28;19916;-80
2022/04/11 13:23:37;;;;;;;3.30;1.20;;;;;;;;;;5057127;28;20029;-81
2022/04/11 13:26:02;;;;;;;2.80;1.25;;;;;;;;;;5056579;28;20420;-80
2022/04/11 13:28:27;;;;;;;2.30;1.08;;;;;;;;;;5057758;28;20048;-81
2022/04/11 13:30:53;;;;;;;2.08;1.13;;;;;;;;;;5057944;28;20041;-80
2022/04/11 13:33:19;;;;;;;2.05;1.00;;;;;;;;;;5056488;28;20116;-80
2022/04/11 13:35:44;;;;;;;2.92;1.20;;;;;;;;;;5057217;28;20041;-81
2022/04/11 13:38:09;;;;;;;1.42;1.10;;;;;;;;;;5055906;28;20485;-80
2022/04/11 13:40:34;;;;;;;1.92;1.10;;;;;;;;;;5055619;28;20123;-81
2022/04/11 13:43:00;;;;;;;1.70;1.10;;;;;;;;;;5056116;28;20041;-80
2022/04/11 13:45:25;;;;;;;3.25;1.33;;;;;;;;;;5056798;28;20333;-80
2022/04/11 13:47:50;;;;;;;2.22;1.20;;;;;;;;;;5056014;28;20095;-80
2022/04/11 13:50:16;;;;;;;1.75;1.05;;;;;;;;;;5056967;28;20029;-80
2022/04/11 13:52:41;;;;;;;2.45;1.10;;;;;;;;;;5057458;28;20455;-81
2022/04/11 13:55:06;;;;;;;1.92;1.00;;;;;;;;;;5056118;28;20032;-80
2022/04/11 13:57:32;;;;;;;2.42;1.20;;;;;;;;;;5056564;28;20405;-79
2022/04/11 13:59:57;;;;;;;3.25;1.00;;;;;;;;;;5056810;28;20041;-80
2022/04/11 14:02:22;;;;;;;1.60;1.02;;;;;;;;;;5055252;28;20029;-80
2022/04/11 14:04:47;;;;;;;3.50;1.10;;;;;;;;;;5056695;28;20044;-81
2022/04/11 14:07:13;;;;;;;2.28;1.10;;;;;;;;;;5056838;28;20044;-80
2022/04/11 14:09:38;;;;;;;2.72;1.02;;;;;;;;;;5056836;28;20507;-80
2022/04/11 14:12:03;;;;;;;3.50;1.10;;;;;;;;;;5056068;28;20472;-80
2022/04/11 14:14:28;;;;;;;3.25;1.20;;;;;;;;;;5056350;28;20033;-80
2022/04/11 14:16:54;;;;;;;2.00;1.05;;;;;;;;;;5056671;28;20405;-80
2022/04/11 14:19:19;;;;;;;2.38;1.02;;;;;;;;;;5056581;28;20060;-81
2022/04/11 14:21:44;;;;;;;3.17;1.10;;;;;;;;;;5055922;28;20036;-81
2022/04/11 14:24:09;;;;;;;2.97;1.00;;;;;;;;;;5056061;28;20072;-80
2022/04/11 14:26:35;;;;;;;1.98;1.10;;;;;;;;;;5054742;28;20029;-81
2022/04/11 14:29:00;;;;;;;1.60;1.10;;;;;;;;;;5077553;22;20513;-85
2022/04/11 14:31:25;;;;;;;1.63;1.00;;;;;;;;;;5055511;28;20116;-85
2022/04/11 14:33:50;;;;;;;2.20;1.08;;;;;;;;;;5054307;28;20489;-85
2022/04/11 14:36:16;;;;;;;1.55;0.90;;;;;;;;;;5056173;28;20033;-84
2022/04/11 14:38:41;;;;;;;1.17;1.00;;;;;;;;;;5054988;28;20567;-84
2022/04/11 14:41:07;;;;;;;3.22;1.10;;;;;;;;;;5053788;28;20098;-84